sensor_id;sensor_type;location;lat;lon;timestamp;P1;durP1;ratioP1;P2;durP2;ratioP2
65597;SDS011;52267;51.984;20.956;2022-11-27T00:01:30;56.10;;;21.90;;
65597;SDS011;52267;51.984;20.956;2022-11-27T00:03:59;66.30;;;25.30;;
65597;SDS011;52267;51.984;20.956;2022-11-27T00:06:28;67.20;;;26.80;;
65597;SDS011;52267;51.984;20.956;2022-11-27T00:08:59;56.80;;;23.40;;
65597;SDS011;52267;51.984;20.956;2022-11-27T00:11:29;63.30;;;25.10;;
65597;SDS011;52267;51.984;20.956;2022-11-27T00:13:57;58.80;;;24.40;;
65597;SDS011;52267;51.984;20.956;2022-11-27T00:16:26;61.70;;;23.70;;
65597;SDS011;52267;51.984;20.956;2022-11-27T00:18:53;56.70;;;22.60;;
65597;SDS011;52267;51.984;20.956;2022-11-27T00:21:23;60.40;;;23.20;;
65597;SDS011;52267;51.984;20.956;2022-11-27T00:23:53;59.60;;;24.80;;
65597;SDS011;52267;51.984;20.956;2022-11-27T00:26:21;63.80;;;25.30;;
65597;SDS011;52267;51.984;20.956;2022-11-27T00:28:49;52.50;;;21.40;;
65597;SDS011;52267;51.984;20.956;2022-11-27T00:31:19;59.00;;;24.30;;
65597;SDS011;52267;51.984;20.956;2022-11-27T00:33:48;58.50;;;24.20;;
65597;SDS011;52267;51.984;20.956;2022-11-27T00:36:15;46.90;;;21.30;;
65597;SDS011;52267;51.984;20.956;2022-11-27T00:38:42;55.80;;;21.20;;
65597;SDS011;52267;51.984;20.956;2022-11-27T00:41:18;59.30;;;25.30;;
65597;SDS011;52267;51.984;20.956;2022-11-27T00:43:47;54.50;;;25.00;;
65597;SDS011;52267;51.984;20.956;2022-11-27T00:46:23;61.10;;;22.90;;
65597;SDS011;52267;51.984;20.956;2022-11-27T00:48:51;51.80;;;22.80;;
65597;SDS011;52267;51.984;20.956;2022-11-27T00:51:20;53.80;;;23.20;;
65597;SDS011;52267;51.984;20.956;2022-11-27T00:53:48;57.00;;;21.00;;
65597;SDS011;52267;51.984;20.956;2022-11-27T00:56:21;50.70;;;22.20;;
65597;SDS011;52267;51.984;20.956;2022-11-27T00:58:50;53.30;;;22.30;;
65597;SDS011;52267;51.984;20.956;2022-11-27T01:01:29;61.20;;;24.80;;
65597;SDS011;52267;51.984;20.956;2022-11-27T01:03:59;52.70;;;23.70;;
65597;SDS011;52267;51.984;20.956;2022-11-27T01:06:28;57.80;;;22.40;;
65597;SDS011;52267;51.984;20.956;2022-11-27T01:08:56;56.50;;;24.80;;
65597;SDS011;52267;51.984;20.956;2022-11-27T01:11:28;65.60;;;27.50;;
65597;SDS011;52267;51.984;20.956;2022-11-27T01:13:59;49.40;;;22.10;;
65597;SDS011;52267;51.984;20.956;2022-11-27T01:16:29;60.10;;;24.40;;
65597;SDS011;52267;51.984;20.956;2022-11-27T01:18:58;54.40;;;23.90;;
65597;SDS011;52267;51.984;20.956;2022-11-27T01:21:29;56.20;;;23.40;;
65597;SDS011;52267;51.984;20.956;2022-11-27T01:23:58;59.60;;;25.80;;
65597;SDS011;52267;51.984;20.956;2022-11-27T01:26:26;64.90;;;25.90;;
65597;SDS011;52267;51.984;20.956;2022-11-27T01:28:55;58.20;;;24.10;;
65597;SDS011;52267;51.984;20.956;2022-11-27T01:31:26;51.10;;;23.80;;
65597;SDS011;52267;51.984;20.956;2022-11-27T01:33:57;54.30;;;23.70;;
65597;SDS011;52267;51.984;20.956;2022-11-27T01:36:26;62.40;;;27.90;;
65597;SDS011;52267;51.984;20.956;2022-11-27T01:38:54;57.10;;;26.10;;
65597;SDS011;52267;51.984;20.956;2022-11-27T01:41:24;63.80;;;26.40;;
65597;SDS011;52267;51.984;20.956;2022-11-27T01:43:57;58.90;;;25.90;;
65597;SDS011;52267;51.984;20.956;2022-11-27T01:46:34;66.70;;;27.30;;
65597;SDS011;52267;51.984;20.956;2022-11-27T01:52:17;63.70;;;25.10;;
65597;SDS011;52267;51.984;20.956;2022-11-27T01:55:01;61.20;;;24.40;;
65597;SDS011;52267;51.984;20.956;2022-11-27T02:00:04;51.30;;;23.00;;
65597;SDS011;52267;51.984;20.956;2022-11-27T02:02:33;53.80;;;23.00;;
65597;SDS011;52267;51.984;20.956;2022-11-27T02:05:00;64.00;;;25.20;;
65597;SDS011;52267;51.984;20.956;2022-11-27T02:07:27;62.40;;;26.20;;
65597;SDS011;52267;51.984;20.956;2022-11-27T02:09:54;61.60;;;26.00;;
65597;SDS011;52267;51.984;20.956;2022-11-27T02:12:28;51.50;;;24.20;;
65597;SDS011;52267;51.984;20.956;2022-11-27T02:20:53;51.70;;;23.90;;
65597;SDS011;52267;51.984;20.956;2022-11-27T02:24:14;54.40;;;23.70;;
65597;SDS011;52267;51.984;20.956;2022-11-27T02:30:23;55.70;;;22.00;;
65597;SDS011;52267;51.984;20.956;2022-11-27T02:33:00;58.60;;;23.60;;
65597;SDS011;52267;51.984;20.956;2022-11-27T02:35:53;52.60;;;22.10;;
65597;SDS011;52267;51.984;20.956;2022-11-27T02:38:27;38.00;;;17.40;;
65597;SDS011;52267;51.984;20.956;2022-11-27T02:41:11;51.10;;;23.10;;
65597;SDS011;52267;51.984;20.956;2022-11-27T02:43:45;51.30;;;21.70;;
65597;SDS011;52267;51.984;20.956;2022-11-27T02:46:15;56.60;;;25.50;;
65597;SDS011;52267;51.984;20.956;2022-11-27T02:48:47;49.80;;;22.10;;
65597;SDS011;52267;51.984;20.956;2022-11-27T02:51:20;52.80;;;21.70;;
65597;SDS011;52267;51.984;20.956;2022-11-27T02:54:02;58.40;;;22.50;;
65597;SDS011;52267;51.984;20.956;2022-11-27T02:56:33;50.10;;;21.50;;
65597;SDS011;52267;51.984;20.956;2022-11-27T02:59:06;50.60;;;20.80;;
65597;SDS011;52267;51.984;20.956;2022-11-27T03:01:40;46.80;;;20.80;;
65597;SDS011;52267;51.984;20.956;2022-11-27T03:04:17;49.70;;;20.70;;
65597;SDS011;52267;51.984;20.956;2022-11-27T03:06:53;51.90;;;21.60;;
65597;SDS011;52267;51.984;20.956;2022-11-27T03:09:31;50.20;;;22.30;;
65597;SDS011;52267;51.984;20.956;2022-11-27T03:12:03;56.00;;;23.30;;
65597;SDS011;52267;51.984;20.956;2022-11-27T03:14:33;55.80;;;22.40;;
65597;SDS011;52267;51.984;20.956;2022-11-27T03:17:19;51.20;;;21.90;;
65597;SDS011;52267;51.984;20.956;2022-11-27T03:19:57;51.90;;;20.60;;
65597;SDS011;52267;51.984;20.956;2022-11-27T03:22:26;48.80;;;22.30;;
65597;SDS011;52267;51.984;20.956;2022-11-27T03:24:54;51.10;;;21.20;;
65597;SDS011;52267;51.984;20.956;2022-11-27T03:27:25;51.60;;;22.90;;
65597;SDS011;52267;51.984;20.956;2022-11-27T03:30:00;51.80;;;22.70;;
65597;SDS011;52267;51.984;20.956;2022-11-27T03:32:30;50.30;;;21.90;;
65597;SDS011;52267;51.984;20.956;2022-11-27T03:34:58;45.70;;;19.90;;
65597;SDS011;52267;51.984;20.956;2022-11-27T03:37:25;59.50;;;25.10;;
65597;SDS011;52267;51.984;20.956;2022-11-27T03:39:53;53.50;;;23.50;;
65597;SDS011;52267;51.984;20.956;2022-11-27T03:56:33;53.70;;;22.60;;
65597;SDS011;52267;51.984;20.956;2022-11-27T03:59:13;51.50;;;21.80;;
65597;SDS011;52267;51.984;20.956;2022-11-27T04:01:41;49.30;;;19.30;;
65597;SDS011;52267;51.984;20.956;2022-11-27T04:04:08;47.20;;;20.50;;
65597;SDS011;52267;51.984;20.956;2022-11-27T04:06:35;56.20;;;24.20;;
65597;SDS011;52267;51.984;20.956;2022-11-27T04:09:03;61.20;;;25.80;;
65597;SDS011;52267;51.984;20.956;2022-11-27T04:11:30;51.80;;;21.20;;
65597;SDS011;52267;51.984;20.956;2022-11-27T04:13:57;61.50;;;22.40;;
65597;SDS011;52267;51.984;20.956;2022-11-27T04:16:24;53.20;;;23.40;;
65597;SDS011;52267;51.984;20.956;2022-11-27T04:18:51;50.60;;;23.20;;
65597;SDS011;52267;51.984;20.956;2022-11-27T04:21:18;57.10;;;22.80;;
65597;SDS011;52267;51.984;20.956;2022-11-27T04:23:45;59.00;;;23.80;;
65597;SDS011;52267;51.984;20.956;2022-11-27T04:26:12;54.80;;;23.70;;
65597;SDS011;52267;51.984;20.956;2022-11-27T04:28:39;53.90;;;22.70;;
65597;SDS011;52267;51.984;20.956;2022-11-27T04:31:06;55.20;;;24.50;;
65597;SDS011;52267;51.984;20.956;2022-11-27T04:33:33;59.80;;;23.90;;
65597;SDS011;52267;51.984;20.956;2022-11-27T04:36:00;47.30;;;21.10;;
65597;SDS011;52267;51.984;20.956;2022-11-27T04:38:27;57.80;;;23.50;;
65597;SDS011;52267;51.984;20.956;2022-11-27T04:40:54;62.60;;;26.70;;
65597;SDS011;52267;51.984;20.956;2022-11-27T04:43:21;49.70;;;21.80;;
65597;SDS011;52267;51.984;20.956;2022-11-27T04:45:48;50.80;;;22.00;;
65597;SDS011;52267;51.984;20.956;2022-11-27T04:48:15;56.20;;;23.80;;
65597;SDS011;52267;51.984;20.956;2022-11-27T04:50:42;54.30;;;23.70;;
65597;SDS011;52267;51.984;20.956;2022-11-27T04:53:09;50.70;;;23.00;;
65597;SDS011;52267;51.984;20.956;2022-11-27T04:55:36;53.60;;;24.00;;
65597;SDS011;52267;51.984;20.956;2022-11-27T04:58:03;50.90;;;22.80;;
65597;SDS011;52267;51.984;20.956;2022-11-27T05:00:30;53.50;;;24.00;;
65597;SDS011;52267;51.984;20.956;2022-11-27T05:02:57;58.10;;;25.10;;
65597;SDS011;52267;51.984;20.956;2022-11-27T05:05:24;54.60;;;22.40;;
65597;SDS011;52267;51.984;20.956;2022-11-27T05:07:51;56.90;;;22.90;;
65597;SDS011;52267;51.984;20.956;2022-11-27T05:10:18;57.90;;;24.50;;
65597;SDS011;52267;51.984;20.956;2022-11-27T05:12:45;41.40;;;19.00;;
65597;SDS011;52267;51.984;20.956;2022-11-27T05:15:12;63.00;;;25.30;;
65597;SDS011;52267;51.984;20.956;2022-11-27T05:17:39;59.50;;;25.10;;
65597;SDS011;52267;51.984;20.956;2022-11-27T05:20:06;50.20;;;22.40;;
65597;SDS011;52267;51.984;20.956;2022-11-27T05:22:33;60.00;;;22.80;;
65597;SDS011;52267;51.984;20.956;2022-11-27T05:25:00;64.30;;;25.70;;
65597;SDS011;52267;51.984;20.956;2022-11-27T05:27:27;59.10;;;23.90;;
65597;SDS011;52267;51.984;20.956;2022-11-27T05:29:54;57.30;;;25.50;;
65597;SDS011;52267;51.984;20.956;2022-11-27T05:32:21;58.70;;;24.40;;
65597;SDS011;52267;51.984;20.956;2022-11-27T05:34:48;61.50;;;24.20;;
65597;SDS011;52267;51.984;20.956;2022-11-27T05:37:15;61.30;;;24.10;;
65597;SDS011;52267;51.984;20.956;2022-11-27T05:39:42;51.10;;;22.10;;
65597;SDS011;52267;51.984;20.956;2022-11-27T05:42:09;53.80;;;23.10;;
65597;SDS011;52267;51.984;20.956;2022-11-27T05:44:36;60.50;;;28.20;;
65597;SDS011;52267;51.984;20.956;2022-11-27T05:47:03;65.90;;;26.30;;
65597;SDS011;52267;51.984;20.956;2022-11-27T05:49:30;62.50;;;24.10;;
65597;SDS011;52267;51.984;20.956;2022-11-27T05:51:57;61.90;;;26.40;;
65597;SDS011;52267;51.984;20.956;2022-11-27T05:54:24;58.40;;;21.70;;
65597;SDS011;52267;51.984;20.956;2022-11-27T05:56:51;57.70;;;24.30;;
65597;SDS011;52267;51.984;20.956;2022-11-27T05:59:18;60.40;;;22.40;;
65597;SDS011;52267;51.984;20.956;2022-11-27T06:01:45;57.10;;;22.00;;
65597;SDS011;52267;51.984;20.956;2022-11-27T06:04:12;62.80;;;26.20;;
65597;SDS011;52267;51.984;20.956;2022-11-27T06:06:39;64.40;;;24.60;;
65597;SDS011;52267;51.984;20.956;2022-11-27T06:09:06;57.10;;;24.70;;
65597;SDS011;52267;51.984;20.956;2022-11-27T06:11:33;63.40;;;25.20;;
65597;SDS011;52267;51.984;20.956;2022-11-27T06:14:00;61.80;;;23.60;;
65597;SDS011;52267;51.984;20.956;2022-11-27T06:16:27;60.40;;;27.10;;
65597;SDS011;52267;51.984;20.956;2022-11-27T06:18:54;65.30;;;25.70;;
65597;SDS011;52267;51.984;20.956;2022-11-27T06:21:22;54.90;;;24.80;;
65597;SDS011;52267;51.984;20.956;2022-11-27T06:23:53;67.20;;;26.00;;
65597;SDS011;52267;51.984;20.956;2022-11-27T06:26:26;63.90;;;23.60;;
65597;SDS011;52267;51.984;20.956;2022-11-27T06:28:55;45.40;;;18.30;;
65597;SDS011;52267;51.984;20.956;2022-11-27T06:31:26;55.10;;;23.20;;
65597;SDS011;52267;51.984;20.956;2022-11-27T06:33:55;58.60;;;24.10;;
65597;SDS011;52267;51.984;20.956;2022-11-27T06:36:29;49.60;;;20.30;;
65597;SDS011;52267;51.984;20.956;2022-11-27T06:38:58;59.10;;;23.00;;
65597;SDS011;52267;51.984;20.956;2022-11-27T06:41:26;54.00;;;23.60;;
65597;SDS011;52267;51.984;20.956;2022-11-27T06:43:54;74.50;;;28.40;;
65597;SDS011;52267;51.984;20.956;2022-11-27T06:46:24;68.70;;;26.50;;
65597;SDS011;52267;51.984;20.956;2022-11-27T06:48:52;66.50;;;25.90;;
65597;SDS011;52267;51.984;20.956;2022-11-27T06:51:25;46.40;;;18.00;;
65597;SDS011;52267;51.984;20.956;2022-11-27T06:53:55;46.30;;;18.50;;
65597;SDS011;52267;51.984;20.956;2022-11-27T06:56:25;68.00;;;26.20;;
65597;SDS011;52267;51.984;20.956;2022-11-27T06:58:58;50.70;;;20.70;;
65597;SDS011;52267;51.984;20.956;2022-11-27T07:01:27;46.00;;;20.70;;
65597;SDS011;52267;51.984;20.956;2022-11-27T07:03:55;56.60;;;22.60;;
65597;SDS011;52267;51.984;20.956;2022-11-27T07:06:24;45.50;;;21.00;;
65597;SDS011;52267;51.984;20.956;2022-11-27T07:08:53;37.20;;;15.40;;
65597;SDS011;52267;51.984;20.956;2022-11-27T07:11:24;67.70;;;27.10;;
65597;SDS011;52267;51.984;20.956;2022-11-27T07:13:55;60.10;;;23.70;;
65597;SDS011;52267;51.984;20.956;2022-11-27T07:16:24;52.80;;;21.80;;
65597;SDS011;52267;51.984;20.956;2022-11-27T07:18:53;40.90;;;19.30;;
65597;SDS011;52267;51.984;20.956;2022-11-27T07:21:23;71.40;;;28.50;;
65597;SDS011;52267;51.984;20.956;2022-11-27T07:23:51;71.10;;;27.80;;
65597;SDS011;52267;51.984;20.956;2022-11-27T07:26:24;61.40;;;27.20;;
65597;SDS011;52267;51.984;20.956;2022-11-27T07:28:52;61.10;;;25.10;;
65597;SDS011;52267;51.984;20.956;2022-11-27T07:31:21;73.60;;;26.90;;
65597;SDS011;52267;51.984;20.956;2022-11-27T07:33:54;64.30;;;25.70;;
65597;SDS011;52267;51.984;20.956;2022-11-27T07:36:25;67.10;;;27.10;;
65597;SDS011;52267;51.984;20.956;2022-11-27T07:38:53;67.30;;;29.00;;
65597;SDS011;52267;51.984;20.956;2022-11-27T07:41:20;61.80;;;27.20;;
65597;SDS011;52267;51.984;20.956;2022-11-27T07:43:48;48.20;;;22.80;;
65597;SDS011;52267;51.984;20.956;2022-11-27T07:46:20;43.00;;;18.80;;
65597;SDS011;52267;51.984;20.956;2022-11-27T07:48:49;51.90;;;22.50;;
65597;SDS011;52267;51.984;20.956;2022-11-27T07:51:18;66.50;;;27.50;;
65597;SDS011;52267;51.984;20.956;2022-11-27T07:53:46;68.80;;;25.30;;
65597;SDS011;52267;51.984;20.956;2022-11-27T07:56:15;65.40;;;26.90;;
65597;SDS011;52267;51.984;20.956;2022-11-27T07:58:42;78.20;;;30.00;;
65597;SDS011;52267;51.984;20.956;2022-11-27T08:01:12;65.00;;;25.50;;
65597;SDS011;52267;51.984;20.956;2022-11-27T08:03:41;57.70;;;24.70;;
65597;SDS011;52267;51.984;20.956;2022-11-27T08:06:18;64.30;;;23.10;;
65597;SDS011;52267;51.984;20.956;2022-11-27T08:08:47;71.90;;;27.70;;
65597;SDS011;52267;51.984;20.956;2022-11-27T08:11:33;55.90;;;24.70;;
65597;SDS011;52267;51.984;20.956;2022-11-27T08:14:03;49.10;;;19.90;;
65597;SDS011;52267;51.984;20.956;2022-11-27T08:16:32;67.10;;;27.60;;
65597;SDS011;52267;51.984;20.956;2022-11-27T08:19:01;73.00;;;30.50;;
65597;SDS011;52267;51.984;20.956;2022-11-27T08:21:28;66.00;;;28.40;;
65597;SDS011;52267;51.984;20.956;2022-11-27T08:23:56;59.50;;;23.30;;
65597;SDS011;52267;51.984;20.956;2022-11-27T08:26:23;76.50;;;30.80;;
65597;SDS011;52267;51.984;20.956;2022-11-27T08:28:53;73.50;;;31.60;;
65597;SDS011;52267;51.984;20.956;2022-11-27T08:31:21;62.60;;;26.30;;
65597;SDS011;52267;51.984;20.956;2022-11-27T08:33:48;66.30;;;26.70;;
65597;SDS011;52267;51.984;20.956;2022-11-27T08:36:16;64.20;;;27.00;;
65597;SDS011;52267;51.984;20.956;2022-11-27T08:38:43;42.30;;;19.00;;
65597;SDS011;52267;51.984;20.956;2022-11-27T08:41:10;74.20;;;31.50;;
65597;SDS011;52267;51.984;20.956;2022-11-27T08:43:37;77.40;;;32.90;;
65597;SDS011;52267;51.984;20.956;2022-11-27T08:46:05;84.80;;;32.60;;
65597;SDS011;52267;51.984;20.956;2022-11-27T08:48:33;67.20;;;29.80;;
65597;SDS011;52267;51.984;20.956;2022-11-27T08:51:04;63.50;;;26.90;;
65597;SDS011;52267;51.984;20.956;2022-11-27T08:53:33;52.80;;;23.30;;
65597;SDS011;52267;51.984;20.956;2022-11-27T08:56:14;61.70;;;24.20;;
65597;SDS011;52267;51.984;20.956;2022-11-27T08:58:43;71.80;;;31.00;;
65597;SDS011;52267;51.984;20.956;2022-11-27T09:01:14;67.40;;;27.80;;
65597;SDS011;52267;51.984;20.956;2022-11-27T09:03:43;74.20;;;30.40;;
65597;SDS011;52267;51.984;20.956;2022-11-27T09:06:12;70.80;;;30.10;;
65597;SDS011;52267;51.984;20.956;2022-11-27T09:08:42;30.80;;;13.80;;
65597;SDS011;52267;51.984;20.956;2022-11-27T09:11:11;35.10;;;15.90;;
65597;SDS011;52267;51.984;20.956;2022-11-27T09:13:40;71.40;;;32.10;;
65597;SDS011;52267;51.984;20.956;2022-11-27T09:16:10;63.60;;;27.30;;
65597;SDS011;52267;51.984;20.956;2022-11-27T09:18:39;74.30;;;31.10;;
65597;SDS011;52267;51.984;20.956;2022-11-27T09:21:08;44.60;;;20.70;;
65597;SDS011;52267;51.984;20.956;2022-11-27T09:23:36;67.60;;;30.80;;
65597;SDS011;52267;51.984;20.956;2022-11-27T09:26:07;71.10;;;29.60;;
65597;SDS011;52267;51.984;20.956;2022-11-27T09:28:36;69.50;;;29.00;;
65597;SDS011;52267;51.984;20.956;2022-11-27T09:31:07;68.00;;;31.00;;
65597;SDS011;52267;51.984;20.956;2022-11-27T09:33:37;75.40;;;32.30;;
65597;SDS011;52267;51.984;20.956;2022-11-27T09:36:05;71.10;;;34.20;;
65597;SDS011;52267;51.984;20.956;2022-11-27T09:38:35;58.80;;;26.30;;
65597;SDS011;52267;51.984;20.956;2022-11-27T09:46:31;59.20;;;28.20;;
65597;SDS011;52267;51.984;20.956;2022-11-27T09:49:04;61.50;;;27.40;;
65597;SDS011;52267;51.984;20.956;2022-11-27T09:51:53;75.90;;;34.20;;
65597;SDS011;52267;51.984;20.956;2022-11-27T09:54:35;95.10;;;45.00;;
65597;SDS011;52267;51.984;20.956;2022-11-27T09:57:04;73.20;;;34.10;;
65597;SDS011;52267;51.984;20.956;2022-11-27T09:59:41;70.00;;;32.70;;
65597;SDS011;52267;51.984;20.956;2022-11-27T10:02:26;69.60;;;33.50;;
65597;SDS011;52267;51.984;20.956;2022-11-27T10:04:57;69.00;;;32.60;;
65597;SDS011;52267;51.984;20.956;2022-11-27T10:07:28;69.90;;;30.80;;
65597;SDS011;52267;51.984;20.956;2022-11-27T10:15:27;69.20;;;33.80;;
65597;SDS011;52267;51.984;20.956;2022-11-27T10:27:21;36.00;;;16.40;;
65597;SDS011;52267;51.984;20.956;2022-11-27T10:29:55;59.10;;;26.80;;
65597;SDS011;52267;51.984;20.956;2022-11-27T10:32:30;63.80;;;30.50;;
65597;SDS011;52267;51.984;20.956;2022-11-27T10:35:02;66.70;;;32.60;;
65597;SDS011;52267;51.984;20.956;2022-11-27T10:37:38;62.10;;;27.90;;
65597;SDS011;52267;51.984;20.956;2022-11-27T10:45:44;61.10;;;27.50;;
65597;SDS011;52267;51.984;20.956;2022-11-27T10:48:23;57.50;;;26.10;;
65597;SDS011;52267;51.984;20.956;2022-11-27T10:50:50;68.80;;;30.30;;
65597;SDS011;52267;51.984;20.956;2022-11-27T11:03:47;65.80;;;27.70;;
65597;SDS011;52267;51.984;20.956;2022-11-27T11:06:18;64.70;;;29.00;;
65597;SDS011;52267;51.984;20.956;2022-11-27T11:08:46;58.10;;;28.10;;
65597;SDS011;52267;51.984;20.956;2022-11-27T11:11:23;65.40;;;28.90;;
65597;SDS011;52267;51.984;20.956;2022-11-27T11:13:51;63.20;;;28.70;;
65597;SDS011;52267;51.984;20.956;2022-11-27T11:16:23;67.90;;;32.60;;
65597;SDS011;52267;51.984;20.956;2022-11-27T11:18:56;59.00;;;27.40;;
65597;SDS011;52267;51.984;20.956;2022-11-27T11:21:37;63.60;;;27.80;;
65597;SDS011;52267;51.984;20.956;2022-11-27T11:24:31;60.40;;;29.10;;
65597;SDS011;52267;51.984;20.956;2022-11-27T11:27:27;58.80;;;27.10;;
65597;SDS011;52267;51.984;20.956;2022-11-27T11:29:56;62.00;;;27.00;;
65597;SDS011;52267;51.984;20.956;2022-11-27T11:32:30;60.80;;;27.00;;
65597;SDS011;52267;51.984;20.956;2022-11-27T11:35:01;63.20;;;28.40;;
65597;SDS011;52267;51.984;20.956;2022-11-27T11:37:32;57.80;;;28.90;;
65597;SDS011;52267;51.984;20.956;2022-11-27T11:42:55;59.20;;;30.30;;
65597;SDS011;52267;51.984;20.956;2022-11-27T11:45:29;59.60;;;27.30;;
65597;SDS011;52267;51.984;20.956;2022-11-27T11:48:00;59.40;;;29.00;;
65597;SDS011;52267;51.984;20.956;2022-11-27T11:53:42;60.60;;;28.60;;
65597;SDS011;52267;51.984;20.956;2022-11-27T11:59:24;59.60;;;27.40;;
65597;SDS011;52267;51.984;20.956;2022-11-27T12:05:10;63.30;;;29.60;;
65597;SDS011;52267;51.984;20.956;2022-11-27T12:07:53;53.90;;;26.40;;
65597;SDS011;52267;51.984;20.956;2022-11-27T12:19:37;54.80;;;26.40;;
65597;SDS011;52267;51.984;20.956;2022-11-27T12:35:33;55.90;;;25.30;;
65597;SDS011;52267;51.984;20.956;2022-11-27T12:47:06;47.30;;;24.30;;
65597;SDS011;52267;51.984;20.956;2022-11-27T12:49:44;56.00;;;25.10;;
65597;SDS011;52267;51.984;20.956;2022-11-27T12:52:34;52.30;;;23.60;;
65597;SDS011;52267;51.984;20.956;2022-11-27T12:55:16;51.80;;;24.30;;
65597;SDS011;52267;51.984;20.956;2022-11-27T12:58:09;56.60;;;30.10;;
65597;SDS011;52267;51.984;20.956;2022-11-27T13:00:42;60.80;;;31.50;;
65597;SDS011;52267;51.984;20.956;2022-11-27T13:03:32;74.40;;;34.90;;
65597;SDS011;52267;51.984;20.956;2022-11-27T13:06:16;58.20;;;29.40;;
65597;SDS011;52267;51.984;20.956;2022-11-27T13:08:53;57.70;;;26.90;;
65597;SDS011;52267;51.984;20.956;2022-11-27T13:11:43;63.20;;;32.30;;
65597;SDS011;52267;51.984;20.956;2022-11-27T13:14:19;68.00;;;31.20;;
65597;SDS011;52267;51.984;20.956;2022-11-27T13:16:54;59.60;;;27.90;;
65597;SDS011;52267;51.984;20.956;2022-11-27T13:19:29;53.30;;;24.60;;
65597;SDS011;52267;51.984;20.956;2022-11-27T13:22:02;61.10;;;28.90;;
65597;SDS011;52267;51.984;20.956;2022-11-27T13:24:32;52.70;;;28.50;;
65597;SDS011;52267;51.984;20.956;2022-11-27T13:27:18;55.90;;;29.10;;
65597;SDS011;52267;51.984;20.956;2022-11-27T13:30:22;55.30;;;27.50;;
65597;SDS011;52267;51.984;20.956;2022-11-27T13:32:56;51.90;;;25.10;;
65597;SDS011;52267;51.984;20.956;2022-11-27T13:35:37;59.00;;;23.80;;
65597;SDS011;52267;51.984;20.956;2022-11-27T13:40:49;61.20;;;25.50;;
65597;SDS011;52267;51.984;20.956;2022-11-27T13:43:22;59.00;;;25.70;;
65597;SDS011;52267;51.984;20.956;2022-11-27T13:48:57;49.90;;;25.00;;
65597;SDS011;52267;51.984;20.956;2022-11-27T13:51:36;53.20;;;27.80;;
65597;SDS011;52267;51.984;20.956;2022-11-27T13:54:16;57.10;;;28.20;;
65597;SDS011;52267;51.984;20.956;2022-11-27T13:56:45;59.30;;;26.30;;
65597;SDS011;52267;51.984;20.956;2022-11-27T13:59:14;51.40;;;25.70;;
65597;SDS011;52267;51.984;20.956;2022-11-27T14:01:54;62.80;;;29.30;;
65597;SDS011;52267;51.984;20.956;2022-11-27T14:04:27;57.80;;;26.70;;
65597;SDS011;52267;51.984;20.956;2022-11-27T14:07:01;52.60;;;24.50;;
65597;SDS011;52267;51.984;20.956;2022-11-27T14:09:35;55.20;;;27.20;;
65597;SDS011;52267;51.984;20.956;2022-11-27T14:12:24;70.00;;;32.10;;
65597;SDS011;52267;51.984;20.956;2022-11-27T14:17:38;54.70;;;26.20;;
65597;SDS011;52267;51.984;20.956;2022-11-27T14:27:52;59.40;;;27.00;;
65597;SDS011;52267;51.984;20.956;2022-11-27T14:30:48;55.20;;;27.50;;
65597;SDS011;52267;51.984;20.956;2022-11-27T14:35:57;59.20;;;28.80;;
65597;SDS011;52267;51.984;20.956;2022-11-27T14:38:26;59.30;;;29.90;;
65597;SDS011;52267;51.984;20.956;2022-11-27T14:41:08;59.80;;;30.50;;
65597;SDS011;52267;51.984;20.956;2022-11-27T14:44:01;59.90;;;31.10;;
65597;SDS011;52267;51.984;20.956;2022-11-27T14:46:34;61.30;;;28.90;;
65597;SDS011;52267;51.984;20.956;2022-11-27T14:49:02;56.60;;;30.20;;
65597;SDS011;52267;51.984;20.956;2022-11-27T14:51:31;57.20;;;28.80;;
65597;SDS011;52267;51.984;20.956;2022-11-27T14:54:03;72.80;;;30.40;;
65597;SDS011;52267;51.984;20.956;2022-11-27T14:56:39;57.50;;;29.50;;
65597;SDS011;52267;51.984;20.956;2022-11-27T14:59:16;61.40;;;30.60;;
65597;SDS011;52267;51.984;20.956;2022-11-27T15:01:57;62.90;;;31.20;;
65597;SDS011;52267;51.984;20.956;2022-11-27T15:06:58;61.00;;;32.20;;
65597;SDS011;52267;51.984;20.956;2022-11-27T15:09:28;63.20;;;33.00;;
65597;SDS011;52267;51.984;20.956;2022-11-27T15:11:59;72.40;;;35.40;;
65597;SDS011;52267;51.984;20.956;2022-11-27T15:14:30;66.40;;;35.30;;
65597;SDS011;52267;51.984;20.956;2022-11-27T15:16:57;73.10;;;35.90;;
65597;SDS011;52267;51.984;20.956;2022-11-27T15:19:34;69.60;;;35.20;;
65597;SDS011;52267;51.984;20.956;2022-11-27T15:22:03;69.80;;;33.50;;
65597;SDS011;52267;51.984;20.956;2022-11-27T15:24:34;67.90;;;33.20;;
65597;SDS011;52267;51.984;20.956;2022-11-27T15:32:19;73.50;;;37.30;;
65597;SDS011;52267;51.984;20.956;2022-11-27T15:34:49;77.20;;;39.20;;
65597;SDS011;52267;51.984;20.956;2022-11-27T15:37:22;73.70;;;36.70;;
65597;SDS011;52267;51.984;20.956;2022-11-27T15:39:54;67.50;;;35.10;;
65597;SDS011;52267;51.984;20.956;2022-11-27T15:42:23;73.50;;;35.40;;
65597;SDS011;52267;51.984;20.956;2022-11-27T15:44:55;58.80;;;30.80;;
65597;SDS011;52267;51.984;20.956;2022-11-27T15:47:36;67.60;;;34.20;;
65597;SDS011;52267;51.984;20.956;2022-11-27T15:50:04;64.70;;;34.20;;
65597;SDS011;52267;51.984;20.956;2022-11-27T15:52:32;63.50;;;32.50;;
65597;SDS011;52267;51.984;20.956;2022-11-27T15:54:59;62.40;;;32.60;;
65597;SDS011;52267;51.984;20.956;2022-11-27T15:57:27;64.40;;;31.40;;
65597;SDS011;52267;51.984;20.956;2022-11-27T15:59:54;65.60;;;31.50;;
65597;SDS011;52267;51.984;20.956;2022-11-27T16:02:21;59.80;;;29.50;;
65597;SDS011;52267;51.984;20.956;2022-11-27T16:04:49;62.20;;;31.50;;
65597;SDS011;52267;51.984;20.956;2022-11-27T16:07:17;57.50;;;29.40;;
65597;SDS011;52267;51.984;20.956;2022-11-27T16:09:46;63.50;;;32.00;;
65597;SDS011;52267;51.984;20.956;2022-11-27T16:12:13;62.00;;;31.30;;
65597;SDS011;52267;51.984;20.956;2022-11-27T16:14:40;71.50;;;35.20;;
65597;SDS011;52267;51.984;20.956;2022-11-27T16:17:07;66.20;;;35.20;;
65597;SDS011;52267;51.984;20.956;2022-11-27T16:19:34;69.90;;;34.20;;
65597;SDS011;52267;51.984;20.956;2022-11-27T16:22:01;68.90;;;36.30;;
65597;SDS011;52267;51.984;20.956;2022-11-27T16:24:28;74.80;;;35.50;;
65597;SDS011;52267;51.984;20.956;2022-11-27T16:26:56;71.60;;;36.90;;
65597;SDS011;52267;51.984;20.956;2022-11-27T16:29:23;68.50;;;37.60;;
65597;SDS011;52267;51.984;20.956;2022-11-27T16:31:50;71.00;;;37.50;;
65597;SDS011;52267;51.984;20.956;2022-11-27T16:34:17;69.10;;;34.10;;
65597;SDS011;52267;51.984;20.956;2022-11-27T16:36:45;68.10;;;34.50;;
65597;SDS011;52267;51.984;20.956;2022-11-27T16:39:12;64.20;;;36.60;;
65597;SDS011;52267;51.984;20.956;2022-11-27T16:41:39;65.70;;;35.20;;
65597;SDS011;52267;51.984;20.956;2022-11-27T16:44:10;60.60;;;32.30;;
65597;SDS011;52267;51.984;20.956;2022-11-27T16:46:39;64.40;;;34.30;;
65597;SDS011;52267;51.984;20.956;2022-11-27T16:49:07;65.90;;;32.60;;